Time;durP1;ratioP1;P1;durP2;ratioP2;P2;SDS_P1;SDS_P2;PMS_P1;PMS_P2;Temp;Humidity;BMP_temperature;BMP_pressure;BME280_temperature;BME280_humidity;BME280_pressure;Samples;Min_cycle;Max_cycle;Signal;HPM_P1;HPM_P2
2024/04/01 00:01:39;;;;;;;23.80;5.70;;;;;;;13.47;60.82;98841.13;107650;1254;60333;-39
2024/04/01 00:04:06;;;;;;;20.60;5.60;;;;;;;13.44;60.88;98842.46;107658;1254;74297;-39
2024/04/01 00:06:33;;;;;;;21.20;5.50;;;;;;;13.42;60.86;98839.18;107665;1254;68328;-38
2024/04/01 00:08:59;;;;;;;18.60;5.70;;;;;;;13.41;60.96;98844.79;107675;1254;73427;-38
2024/04/01 00:11:26;;;;;;;20.70;5.50;;;;;;;13.39;61.06;98837.80;107721;1254;60324;-38
2024/04/01 00:13:53;;;;;;;23.00;5.50;;;;;;;13.37;61.23;98831.64;107712;1255;60312;-37
2024/04/01 00:16:20;;;;;;;21.00;5.00;;;;;;;13.34;61.31;98831.96;107667;1254;74286;-38
2024/04/01 00:18:47;;;;;;;20.80;5.20;;;;;;;13.30;61.43;98829.55;107717;1253;67977;-38
2024/04/01 00:21:13;;;;;;;22.00;6.20;;;;;;;13.27;61.61;98831.96;107662;1254;73118;-38
2024/04/01 00:23:40;;;;;;;25.90;5.70;;;;;;;13.24;61.91;98830.17;107611;1254;60740;-37
2024/04/01 00:26:07;;;;;;;18.60;5.90;;;;;;;13.19;62.03;98827.70;107716;1254;60370;-38
2024/04/01 00:28:33;;;;;;;14.30;5.40;;;;;;;13.16;62.21;98822.56;107634;1255;74209;-38
2024/04/01 00:31:00;;;;;;;25.20;5.90;;;;;;;13.12;62.41;98819.69;107684;1254;68495;-38
2024/04/01 00:33:27;;;;;;;24.90;6.70;;;;;;;13.14;62.43;98812.67;107706;1256;73242;-38
2024/04/01 00:35:55;;;;;;;22.40;5.20;;;;;;;13.19;62.40;98810.43;107671;1254;60341;-38
2024/04/01 00:38:22;;;;;;;27.40;6.30;;;;;;;13.19;62.38;98814.23;107728;1253;60530;-38
2024/04/01 00:40:49;;;;;;;23.40;5.70;;;;;;;13.18;62.60;98812.44;107737;1254;74103;-38
2024/04/01 00:43:16;;;;;;;26.90;6.70;;;;;;;13.17;62.51;98812.61;107721;1254;68501;-38
2024/04/01 00:45:44;;;;;;;27.80;6.80;;;;;;;13.15;62.60;98811.38;107696;1254;72190;-37
2024/04/01 00:48:12;;;;;;;26.30;6.50;;;;;;;13.14;62.67;98811.67;107705;1252;60427;-37
2024/04/01 00:50:38;;;;;;;24.90;6.00;;;;;;;13.12;62.78;98813.08;107583;1254;60395;-37
2024/04/01 00:53:05;;;;;;;26.90;6.00;;;;;;;13.09;63.01;98807.98;107371;1254;74271;-37
2024/04/01 00:55:32;;;;;;;23.70;5.90;;;;;;;13.04;62.96;98799.13;107527;1254;68159;-38
2024/04/01 00:57:59;;;;;;;31.20;6.90;;;;;;;13.00;63.32;98801.30;107416;1254;73156;-38
2024/04/01 01:00:26;;;;;;;24.00;6.40;;;;;;;12.94;63.49;98793.08;107647;1253;60412;-38
2024/04/01 01:02:53;;;;;;;20.60;5.40;;;;;;;12.90;63.63;98790.19;107697;1253;60061;-38
2024/04/01 01:05:24;;;;;;;22.20;5.90;;;;;;;12.93;63.67;98786.68;107359;1254;74484;-38
2024/04/01 01:07:51;;;;;;;24.50;6.30;;;;;;;12.96;63.64;98779.31;107505;1254;68019;-39
2024/04/01 01:10:18;;;;;;;20.10;5.60;;;;;;;12.95;63.84;98775.65;107684;1254;73305;-38
2024/04/01 01:12:45;;;;;;;26.00;6.60;;;;;;;12.92;63.88;98768.89;107515;1254;60337;-38
2024/04/01 01:15:11;;;;;;;22.60;6.50;;;;;;;12.90;64.13;98763.52;107666;1254;60440;-38
2024/04/01 01:17:38;;;;;;;23.10;6.00;;;;;;;12.87;64.27;98764.06;107477;1254;74377;-39
2024/04/01 01:20:11;;;;;;;25.80;6.90;;;;;;;12.82;64.36;98782.88;107361;1254;67909;-39
2024/04/01 01:22:39;;;;;;;25.00;6.30;;;;;;;12.78;64.72;98807.05;107626;1254;73153;-38
2024/04/01 01:25:07;;;;;;;28.50;7.20;;;;;;;12.72;64.94;98787.53;107699;1254;60530;-38
2024/04/01 01:27:34;;;;;;;18.20;5.80;;;;;;;12.67;64.99;98782.01;107681;1254;60344;-39
2024/04/01 01:30:15;;;;;;;25.00;5.60;;;;;;;12.63;65.29;98783.71;107552;1254;74432;-39
2024/04/01 01:32:47;;;;;;;24.40;6.20;;;;;;;12.65;65.19;98778.98;107577;1254;68577;-38
2024/04/01 01:35:14;;;;;;;21.00;5.50;;;;;;;12.70;65.35;98772.44;107652;1254;71423;-38
2024/04/01 01:37:41;;;;;;;25.30;6.20;;;;;;;12.69;65.40;98766.63;107592;1258;60479;-39
2024/04/01 01:40:11;;;;;;;27.00;6.60;;;;;;;12.67;65.65;98762.90;107621;1254;61529;-37
2024/04/01 01:42:37;;;;;;;22.60;6.70;;;;;;;12.66;65.70;98757.38;107723;1252;72513;-37
2024/04/01 01:45:05;;;;;;;23.30;6.50;;;;;;;12.62;65.80;98767.09;107641;1257;68459;-37
2024/04/01 01:47:32;;;;;;;25.70;6.90;;;;;;;12.60;65.96;98779.28;107678;1256;70976;-37
2024/04/01 01:50:00;;;;;;;21.00;6.40;;;;;;;12.56;66.20;98805.38;107693;1253;60425;-38
2024/04/01 01:52:26;;;;;;;31.50;7.30;;;;;;;12.52;66.39;98791.47;107616;1254;59631;-38
2024/04/01 01:54:54;;;;;;;23.90;6.80;;;;;;;12.54;66.39;98788.05;107644;1256;73954;-38
2024/04/01 01:57:20;;;;;;;21.30;6.60;;;;;;;12.60;66.34;98790.00;107681;1254;66657;-38
2024/04/01 01:59:47;;;;;;;29.90;6.90;;;;;;;12.60;66.39;98790.08;107668;1254;73287;-38
2024/04/01 02:02:15;;;;;;;25.20;6.70;;;;;;;12.58;66.48;98795.82;107665;1254;61116;-38
2024/04/01 02:04:43;;;;;;;30.50;6.60;;;;;;;12.57;66.50;98794.04;107654;1254;61230;-38
2024/04/01 02:07:09;;;;;;;20.60;6.30;;;;;;;12.55;66.69;98790.84;107627;1254;75264;-38
2024/04/01 02:09:37;;;;;;;22.00;6.30;;;;;;;12.51;66.85;98781.13;107641;1254;68543;-38
2024/04/01 02:12:10;;;;;;;24.10;6.30;;;;;;;12.44;66.99;98778.48;107717;1254;73248;-38
2024/04/01 02:14:37;;;;;;;24.00;5.90;;;;;;;12.16;67.19;98744.02;107621;1253;61888;-38
2024/04/01 02:17:05;;;;;;;23.50;7.00;;;;;;;12.40;67.27;98770.94;107621;1256;59214;-38
2024/04/01 02:19:31;;;;;;;21.80;5.80;;;;;;;12.41;67.16;98774.83;107570;1254;75110;-38
2024/04/01 02:21:58;;;;;;;19.90;6.20;;;;;;;12.39;67.43;98775.27;107608;1254;68167;-38
2024/04/01 02:24:26;;;;;;;28.10;6.80;;;;;;;12.37;67.48;98775.75;107588;1254;72039;-38
2024/04/01 02:26:53;;;;;;;27.10;7.50;;;;;;;12.36;67.56;98773.56;107583;1254;61205;-38
2024/04/01 02:29:20;;;;;;;25.30;7.20;;;;;;;12.36;67.55;98771.94;107561;1253;61205;-38
2024/04/01 02:31:48;;;;;;;27.80;6.70;;;;;;;12.35;67.51;98771.39;107580;1254;74975;-39
2024/04/01 02:34:15;;;;;;;23.20;6.50;;;;;;;12.32;67.56;98771.85;107675;1254;67770;-38
2024/04/01 02:36:42;;;;;;;21.90;6.80;;;;;;;12.27;67.71;98771.38;107565;1257;73178;-38
2024/04/01 02:39:16;;;;;;;26.90;6.80;;;;;;;12.28;67.61;98768.10;107529;1256;61783;-38
2024/04/01 02:41:46;;;;;;;23.10;6.50;;;;;;;12.33;67.68;98764.64;107493;1255;60447;-38
2024/04/01 02:44:13;;;;;;;29.80;6.90;;;;;;;12.32;67.62;98764.40;107590;1254;74453;-38
2024/04/01 02:46:40;;;;;;;25.90;7.10;;;;;;;12.29;67.77;98761.75;107574;1255;67888;-38
2024/04/01 02:49:09;;;;;;;28.30;6.80;;;;;;;12.26;67.87;98766.86;107614;1256;72675;-38
2024/04/01 02:51:37;;;;;;;29.00;7.00;;;;;;;12.21;68.10;98768.56;107620;1254;60817;-38
2024/04/01 02:54:05;;;;;;;24.40;7.10;;;;;;;12.15;68.26;98762.50;107557;1256;61215;-38
2024/04/01 02:56:32;;;;;;;27.20;7.00;;;;;;;12.10;68.47;98755.64;107672;1255;74463;-38
2024/04/01 02:59:09;;;;;;;27.00;6.50;;;;;;;12.12;68.46;98749.90;107627;1254;67708;-37
2024/04/01 03:01:39;;;;;;;25.30;6.20;;;;;;;12.17;68.50;98752.09;107634;1254;73134;-38
2024/04/01 03:04:06;;;;;;;21.00;6.20;;;;;;;12.16;68.60;98759.54;107592;1254;60904;-38
2024/04/01 03:06:33;;;;;;;25.80;6.70;;;;;;;12.15;68.77;98766.75;107645;1257;60400;-38
2024/04/01 03:09:00;;;;;;;25.00;7.20;;;;;;;12.16;68.80;98771.34;107642;1252;75270;-38
2024/04/01 03:11:26;;;;;;;28.60;7.10;;;;;;;12.18;68.70;98773.77;107610;1257;68298;-38
2024/04/01 03:13:53;;;;;;;24.30;6.80;;;;;;;12.18;68.83;98775.54;107586;1256;71966;-38
2024/04/01 03:16:20;;;;;;;25.10;7.10;;;;;;;12.15;68.81;98780.04;107620;1255;60768;-38
2024/04/01 03:18:47;;;;;;;21.80;6.10;;;;;;;12.12;69.12;98783.52;107631;1253;61889;-38
2024/04/01 03:21:14;;;;;;;25.30;7.30;;;;;;;12.13;69.12;98782.98;107705;1256;74511;-37
2024/04/01 03:23:42;;;;;;;25.00;7.10;;;;;;;12.17;69.12;98782.05;107612;1254;66437;-38
2024/04/01 03:26:08;;;;;;;25.40;7.60;;;;;;;12.15;69.14;98780.27;107677;1256;72460;-38
2024/04/01 03:28:35;;;;;;;26.60;7.40;;;;;;;12.12;69.32;98777.61;107652;1255;61122;-38
2024/04/01 03:31:06;;;;;;;24.30;7.00;;;;;;;12.07;69.49;98771.77;107688;1254;60047;-38
2024/04/01 03:33:34;;;;;;;28.00;7.00;;;;;;;12.03;69.72;98765.78;107665;1256;73847;-38
2024/04/01 03:36:01;;;;;;;25.20;6.90;;;;;;;11.98;69.83;98762.52;107702;1254;67302;-37
2024/04/01 03:38:28;;;;;;;26.40;6.50;;;;;;;11.97;69.98;98757.30;107622;1257;73088;-37
2024/04/01 03:40:54;;;;;;;25.00;7.00;;;;;;;12.00;69.96;98760.58;107546;1255;61943;-37
2024/04/01 03:43:21;;;;;;;27.30;6.90;;;;;;;12.04;69.97;98768.89;107517;1254;62826;-37
2024/04/01 03:46:00;;;;;;;26.20;6.30;;;;;;;12.02;70.07;98772.15;107531;1255;75087;-37
2024/04/01 03:48:28;;;;;;;26.20;7.20;;;;;;;11.97;70.29;98762.66;107582;1254;68440;-38
2024/04/01 03:50:55;;;;;;;22.30;6.70;;;;;;;11.91;70.34;98758.84;107586;1254;72487;-37
2024/04/01 03:53:22;;;;;;;24.50;6.30;;;;;;;11.90;70.44;98760.77;107535;1252;60393;-37
2024/04/01 03:55:48;;;;;;;35.70;7.20;;;;;;;11.88;70.52;98756.42;107633;1254;60415;-37
2024/04/01 03:58:15;;;;;;;25.70;7.00;;;;;;;11.88;70.59;98756.49;107680;1256;75236;-37
2024/04/01 04:00:42;;;;;;;20.10;6.50;;;;;;;11.92;70.52;98757.52;107666;1254;68571;-37
2024/04/01 04:03:09;;;;;;;33.80;7.30;;;;;;;11.96;70.54;98762.50;107661;1254;73161;-37
2024/04/01 04:05:36;;;;;;;26.60;7.00;;;;;;;11.92;70.59;98757.99;107693;1254;61209;-37
2024/04/01 04:08:03;;;;;;;28.90;6.90;;;;;;;11.87;70.76;98760.38;107653;1257;61657;-37
2024/04/01 04:10:31;;;;;;;27.70;7.00;;;;;;;11.85;70.85;98763.02;107688;1256;74605;-37
2024/04/01 04:12:57;;;;;;;23.60;7.30;;;;;;;11.83;70.88;98766.17;107642;1256;68617;-37
2024/04/01 04:15:24;;;;;;;32.30;8.00;;;;;;;11.79;71.07;98763.59;107666;1255;73181;-36
2024/04/01 04:17:51;;;;;;;25.60;7.60;;;;;;;11.81;71.15;98763.06;107620;1253;61797;-37
2024/04/01 04:20:18;;;;;;;23.60;6.60;;;;;;;11.84;71.03;98763.02;107656;1252;61214;-37
2024/04/01 04:22:47;;;;;;;23.90;7.10;;;;;;;11.82;71.16;98765.09;107572;1256;75151;-37
2024/04/01 04:25:14;;;;;;;22.80;6.50;;;;;;;11.80;71.28;98762.91;107697;1254;68472;-37
2024/04/01 04:27:41;;;;;;;23.40;6.50;;;;;;;11.79;71.36;98759.55;107638;1256;73136;-38
2024/04/01 04:30:12;;;;;;;32.10;8.00;;;;;;;11.77;71.52;98757.52;107596;1256;61119;-37
2024/04/01 04:32:42;;;;;;;28.60;6.80;;;;;;;11.77;71.60;98753.41;107602;1254;60328;-37
2024/04/01 04:35:09;;;;;;;23.10;6.70;;;;;;;11.82;71.42;98757.94;107567;1254;74197;-37
2024/04/01 04:37:36;;;;;;;29.10;7.00;;;;;;;11.87;71.34;98760.60;107633;1257;68118;-37
2024/04/01 04:40:04;;;;;;;30.50;7.30;;;;;;;11.87;71.42;98762.85;107658;1254;73037;-37
2024/04/01 04:42:31;;;;;;;24.30;7.30;;;;;;;11.85;71.54;98760.15;107695;1255;61336;-37
2024/04/01 04:44:58;;;;;;;19.70;6.80;;;;;;;11.84;71.70;98758.19;107629;1254;61198;-38
2024/04/01 04:47:24;;;;;;;27.70;7.00;;;;;;;11.83;71.80;98756.23;107654;1255;75000;-38
2024/04/01 04:49:51;;;;;;;29.20;7.00;;;;;;;11.84;71.80;98753.08;107652;1255;68393;-39
2024/04/01 04:52:18;;;;;;;27.40;7.00;;;;;;;11.88;71.76;98751.77;107600;1256;73161;-39
2024/04/01 04:54:49;;;;;;;33.20;7.90;;;;;;;11.92;71.68;98749.91;107707;1254;61084;-38
2024/04/01 04:57:16;;;;;;;25.90;7.40;;;;;;;11.92;71.76;98753.02;107654;1256;61365;-37
2024/04/01 04:59:43;;;;;;;23.40;6.80;;;;;;;11.92;71.83;98759.45;107532;1252;75006;-37
2024/04/01 05:02:10;;;;;;;34.30;8.00;;;;;;;11.92;71.83;98758.22;107643;1256;68478;-37
2024/04/01 05:04:37;;;;;;;23.40;6.30;;;;;;;11.91;71.91;98762.80;107690;1255;73228;-37
2024/04/01 05:07:04;;;;;;;30.50;7.80;;;;;;;11.97;71.97;98762.35;107552;1253;61098;-37
2024/04/01 05:09:30;;;;;;;32.50;7.70;;;;;;;12.05;71.84;98763.15;107575;1254;61196;-37
2024/04/01 05:11:57;;;;;;;24.70;7.30;;;;;;;12.09;71.72;98754.08;107526;1254;75162;-37
2024/04/01 05:14:24;;;;;;;25.30;7.40;;;;;;;12.14;71.68;98754.33;107637;1254;66527;-37
2024/04/01 05:16:51;;;;;;;26.30;7.20;;;;;;;12.21;71.48;98756.29;107652;1256;73231;-38
2024/04/01 05:19:21;;;;;;;28.90;6.90;;;;;;;12.26;71.29;98762.66;107673;1255;61400;-37
2024/04/01 05:21:48;;;;;;;27.70;7.20;;;;;;;12.33;71.23;98775.19;107639;1255;61231;-37
2024/04/01 05:24:15;;;;;;;28.80;7.90;;;;;;;12.44;70.98;98786.16;107671;1254;74739;-37
2024/04/01 05:26:43;;;;;;;41.00;8.50;;;;;;;12.57;70.73;98783.63;107734;1257;66431;-37
2024/04/01 05:29:09;;;;;;;26.60;7.30;;;;;;;12.63;70.60;98777.96;107627;1256;73062;-37
2024/04/01 05:31:36;;;;;;;28.90;7.70;;;;;;;12.64;70.47;98780.68;107686;1255;61138;-37
2024/04/01 05:34:03;;;;;;;24.90;6.60;;;;;;;12.64;70.57;98778.89;107675;1257;60920;-37
2024/04/01 05:36:31;;;;;;;28.10;7.80;;;;;;;12.64;70.44;98777.80;107676;1252;74680;-37
2024/04/01 05:38:59;;;;;;;32.10;6.20;;;;;;;12.67;70.33;98776.81;107698;1254;67878;-37
2024/04/01 05:41:26;;;;;;;23.90;6.30;;;;;;;12.74;70.13;98775.88;107590;1257;72464;-37
2024/04/01 05:43:54;;;;;;;27.10;6.70;;;;;;;12.78;70.27;98776.11;107706;1254;61960;-37
2024/04/01 05:46:20;;;;;;;29.60;6.90;;;;;;;12.80;70.04;98776.80;107702;1254;61240;-37
2024/04/01 05:48:47;;;;;;;21.20;7.00;;;;;;;12.82;70.15;98770.53;107725;1254;75277;-38
2024/04/01 05:51:14;;;;;;;32.00;7.10;;;;;;;12.84;70.16;98775.34;107576;1254;68153;-37
2024/04/01 05:53:42;;;;;;;28.90;7.10;;;;;;;12.88;70.20;98776.81;107596;1254;73129;-38
2024/04/01 05:56:08;;;;;;;27.20;6.80;;;;;;;12.98;70.18;98771.70;107699;1256;61656;-38
2024/04/01 05:58:36;;;;;;;30.70;6.80;;;;;;;13.06;70.20;98769.82;107738;1254;61215;-38
2024/04/01 06:01:03;;;;;;;29.40;8.40;;;;;;;13.10;69.83;98771.85;107665;1257;74993;-38
2024/04/01 06:03:30;;;;;;;27.00;8.10;;;;;;;13.13;69.74;98769.76;107708;1257;68010;-38
2024/04/01 06:05:59;;;;;;;27.10;7.20;;;;;;;13.15;69.86;98764.71;107693;1254;71085;-38
2024/04/01 06:08:25;;;;;;;23.50;6.40;;;;;;;13.17;69.96;98760.59;107687;1254;61868;-38
2024/04/01 06:10:52;;;;;;;31.60;7.70;;;;;;;13.27;69.76;98766.02;107708;1255;60980;-37
2024/04/01 06:13:19;;;;;;;31.60;7.00;;;;;;;13.37;69.44;98772.38;107589;1254;74701;-38
2024/04/01 06:15:46;;;;;;;29.60;7.90;;;;;;;13.42;69.27;98775.08;107562;1256;67789;-38
2024/04/01 06:18:13;;;;;;;24.50;7.10;;;;;;;13.46;69.07;98774.22;107610;1256;72718;-38
2024/04/01 06:20:39;;;;;;;28.50;6.90;;;;;;;13.52;69.04;98770.80;107689;1254;61115;-38
2024/04/01 06:23:09;;;;;;;27.50;7.70;;;;;;;13.59;68.98;98771.39;107739;1256;61397;-37
2024/04/01 06:25:46;;;;;;;28.50;7.40;;;;;;;13.68;68.84;98775.57;107650;1256;75639;-38
2024/04/01 06:28:13;;;;;;;32.00;6.50;;;;;;;13.84;68.41;98773.80;107698;1254;65601;-38
2024/04/01 06:30:40;;;;;;;27.70;7.20;;;;;;;14.01;68.14;98771.79;107691;1256;71639;-38
2024/04/01 06:33:07;;;;;;;27.10;6.70;;;;;;;14.11;67.57;98776.97;107690;1253;60315;-38
2024/04/01 06:35:35;;;;;;;24.70;6.90;;;;;;;14.19;67.31;98784.16;107772;1254;61119;-37
2024/04/01 06:38:05;;;;;;;26.30;7.40;;;;;;;14.27;66.89;98784.83;107734;1254;74636;-38
2024/04/01 06:40:36;;;;;;;25.00;6.50;;;;;;;14.34;67.00;98786.83;107705;1254;68071;-37
2024/04/01 06:43:03;;;;;;;31.60;8.00;;;;;;;14.45;66.75;98795.74;107747;1254;72498;-38
2024/04/01 06:45:29;;;;;;;27.80;7.50;;;;;;;14.62;66.17;98796.89;107646;1252;62073;-38
2024/04/01 06:47:56;;;;;;;23.80;6.90;;;;;;;14.76;65.57;98803.80;107688;1254;60429;-37
2024/04/01 06:50:23;;;;;;;33.70;7.50;;;;;;;14.86;65.62;98800.85;107686;1256;74833;-38
2024/04/01 06:52:50;;;;;;;31.10;8.40;;;;;;;14.95;65.26;98807.25;107696;1254;67972;-37
2024/04/01 06:55:17;;;;;;;31.00;7.90;;;;;;;15.03;65.02;98813.59;107684;1254;72241;-38
2024/04/01 06:57:44;;;;;;;34.40;9.20;;;;;;;15.11;64.21;98815.39;107567;1253;61102;-38
2024/04/01 07:00:12;;;;;;;35.30;8.70;;;;;;;15.19;64.06;98819.77;107597;1254;61248;-38
2024/04/01 07:02:40;;;;;;;32.30;9.30;;;;;;;15.25;64.01;98815.67;107734;1255;73456;-38
2024/04/01 07:05:07;;;;;;;33.10;8.50;;;;;;;15.33;63.95;98811.47;107648;1257;67771;-38
2024/04/01 07:07:35;;;;;;;32.10;9.90;;;;;;;15.48;63.85;98810.31;107639;1254;72554;-38
2024/04/01 07:10:03;;;;;;;26.10;8.70;;;;;;;15.64;63.57;98812.98;107694;1254;62480;-38
2024/04/01 07:12:32;;;;;;;24.60;8.50;;;;;;;15.78;63.15;98808.54;107676;1254;61089;-37
2024/04/01 07:14:59;;;;;;;27.40;8.50;;;;;;;15.93;62.63;98805.87;107687;1254;74471;-38
2024/04/01 07:17:26;;;;;;;30.10;8.80;;;;;;;16.05;61.59;98807.22;107619;1256;68088;-38
2024/04/01 07:19:53;;;;;;;28.20;8.40;;;;;;;16.15;61.36;98802.65;107637;1254;72531;-38
2024/04/01 07:22:19;;;;;;;30.50;8.40;;;;;;;16.26;61.22;98805.55;107654;1254;60200;-38
2024/04/01 07:24:46;;;;;;;27.00;8.80;;;;;;;16.38;61.06;98806.02;107610;1253;61149;-38
2024/04/01 07:27:13;;;;;;;28.60;8.30;;;;;;;16.52;60.66;98803.25;107650;1254;74503;-38
2024/04/01 07:29:40;;;;;;;32.30;8.40;;;;;;;16.64;60.01;98802.55;107631;1256;67951;-38
2024/04/01 07:32:07;;;;;;;31.50;8.30;;;;;;;16.73;60.06;98807.10;107627;1254;72505;-38
2024/04/01 07:34:34;;;;;;;26.10;7.10;;;;;;;16.85;59.72;98807.01;107613;1254;62500;-38
2024/04/01 07:37:00;;;;;;;29.30;8.20;;;;;;;16.97;59.21;98801.27;107624;1254;61217;-38
2024/04/01 07:39:28;;;;;;;33.50;8.50;;;;;;;17.08;59.24;98798.44;107527;1254;74719;-38
2024/04/01 07:41:55;;;;;;;28.90;7.80;;;;;;;17.21;58.49;98797.52;107535;1253;67830;-38
2024/04/01 07:44:21;;;;;;;28.90;7.60;;;;;;;17.33;58.26;98804.02;107616;1253;72826;-38
2024/04/01 07:46:48;;;;;;;31.20;7.80;;;;;;;17.44;58.26;98800.16;107554;1254;61099;-37
2024/04/01 07:49:15;;;;;;;27.40;7.70;;;;;;;17.56;58.06;98805.59;107587;1254;60383;-38
2024/04/01 07:51:42;;;;;;;25.40;8.00;;;;;;;17.69;57.12;98806.88;107599;1254;74705;-37
2024/04/01 07:54:09;;;;;;;30.70;8.00;;;;;;;17.81;57.26;98799.50;107626;1254;67987;-37
2024/04/01 07:56:36;;;;;;;25.40;7.30;;;;;;;17.96;56.74;98795.69;107535;1252;72958;-37
2024/04/01 07:59:03;;;;;;;29.00;8.00;;;;;;;18.11;56.53;98792.41;107622;1252;60455;-37
2024/04/01 08:01:32;;;;;;;29.50;8.00;;;;;;;18.30;56.65;98796.16;107638;1254;61269;-37
2024/04/01 08:03:59;;;;;;;24.00;7.50;;;;;;;18.51;55.61;98795.09;107565;1256;73658;-37
2024/04/01 08:06:25;;;;;;;29.60;7.80;;;;;;;18.72;55.05;98789.15;107628;1254;68045;-37
2024/04/01 08:08:52;;;;;;;26.40;7.30;;;;;;;18.90;54.55;98789.65;107614;1253;72556;-36
2024/04/01 08:11:19;;;;;;;28.20;8.10;;;;;;;19.05;54.23;98789.92;107626;1254;61314;-37
2024/04/01 08:13:47;;;;;;;26.20;8.10;;;;;;;19.22;53.21;98792.63;107670;1254;61253;-37
2024/04/01 08:16:14;;;;;;;31.20;7.80;;;;;;;19.39;52.90;98787.98;107632;1252;74506;-39
2024/04/01 08:18:40;;;;;;;28.70;7.00;;;;;;;19.56;52.36;98793.21;107647;1254;66507;-37
2024/04/01 08:21:07;;;;;;;36.20;8.30;;;;;;;19.71;51.33;98796.27;107635;1252;72685;-37
2024/04/01 08:23:34;;;;;;;41.10;8.20;;;;;;;19.81;51.12;98792.46;107369;1253;61212;-37
2024/04/01 08:26:01;;;;;;;27.40;8.00;;;;;;;19.90;50.27;98789.91;107560;1254;61234;-37
2024/04/01 08:28:28;;;;;;;31.10;7.70;;;;;;;20.00;49.50;98787.21;107664;1256;74450;-37
2024/04/01 08:30:54;;;;;;;37.20;8.40;;;;;;;20.09;49.66;98785.05;107663;1253;67928;-37
2024/04/01 08:33:22;;;;;;;41.00;8.80;;;;;;;20.21;48.92;98781.41;107678;1254;72692;-37
2024/04/01 08:35:48;;;;;;;38.50;8.70;;;;;;;20.36;48.00;98782.30;107531;1254;60975;-37
2024/04/01 08:38:15;;;;;;;35.80;7.80;;;;;;;20.52;48.21;98783.65;107573;1253;61237;-38
2024/04/01 08:40:46;;;;;;;31.10;8.00;;;;;;;20.63;48.18;98776.31;107630;1252;74679;-37
2024/04/01 08:43:15;;;;;;;27.60;8.20;;;;;;;20.77;47.50;98773.97;107589;1254;67879;-37
2024/04/01 08:45:43;;;;;;;29.90;7.70;;;;;;;20.96;46.99;98768.50;107635;1252;72759;-37
2024/04/01 08:48:12;;;;;;;39.10;8.70;;;;;;;21.12;46.17;98761.90;107517;1254;60463;-37
2024/04/01 08:50:49;;;;;;;30.40;8.20;;;;;;;21.28;46.70;98768.38;107640;1254;61127;-37
2024/04/01 08:53:32;;;;;;;29.30;8.20;;;;;;;21.49;46.01;98768.07;107549;1254;74665;-37
2024/04/01 08:55:59;;;;;;;31.40;8.70;;;;;;;21.70;45.55;98766.77;107637;1254;68777;-37
2024/04/01 08:58:28;;;;;;;35.50;8.80;;;;;;;21.89;46.01;98759.85;107619;1254;72791;-37
2024/04/01 09:00:55;;;;;;;40.20;10.40;;;;;;;22.13;44.56;98761.04;107527;1259;60867;-37
2024/04/01 09:03:22;;;;;;;45.20;10.00;;;;;;;22.32;43.44;98753.93;107627;1255;61632;-37
2024/04/01 09:05:48;;;;;;;42.10;10.50;;;;;;;22.45;42.73;98748.69;107651;1254;74747;-38
2024/04/01 09:08:16;;;;;;;42.60;9.90;;;;;;;22.57;42.32;98748.55;107678;1254;67819;-38
2024/04/01 09:10:43;;;;;;;40.00;10.00;;;;;;;22.75;42.33;98735.86;107639;1256;71530;-38
2024/04/01 09:13:13;;;;;;;40.60;9.10;;;;;;;22.97;41.44;98726.02;107643;1253;61121;-38
2024/04/01 09:15:40;;;;;;;36.70;8.40;;;;;;;23.18;40.95;98734.16;107498;1254;61237;-38
2024/04/01 09:18:14;;;;;;;38.80;8.90;;;;;;;23.37;40.76;98737.27;107654;1254;75969;-38
2024/04/01 09:20:41;;;;;;;45.20;9.30;;;;;;;23.55;40.52;98730.05;107493;1253;68007;-39
2024/04/01 09:23:08;;;;;;;43.90;9.70;;;;;;;23.70;40.10;98727.34;107656;1254;72930;-38
2024/04/01 09:25:35;;;;;;;31.90;9.00;;;;;;;23.83;39.13;98725.26;107643;1254;61368;-38
2024/04/01 09:28:03;;;;;;;42.10;10.00;;;;;;;24.02;38.71;98723.19;107658;1254;61202;-38
2024/04/01 09:30:30;;;;;;;36.50;9.30;;;;;;;24.27;39.18;98720.70;107651;1256;74519;-38
2024/04/01 09:32:58;;;;;;;33.30;8.60;;;;;;;24.51;38.21;98711.65;107756;1254;67167;-38
2024/04/01 09:35:25;;;;;;;31.30;8.00;;;;;;;24.73;37.61;98713.50;107562;1259;70774;-38
2024/04/01 09:37:53;;;;;;;39.20;9.30;;;;;;;24.89;37.12;98711.95;107389;1254;61269;-38
2024/04/01 09:40:20;;;;;;;37.90;9.20;;;;;;;25.07;36.86;98709.31;107320;1254;61225;-38
2024/04/01 09:42:47;;;;;;;41.80;9.40;;;;;;;25.24;36.34;98704.63;107518;1254;73610;-38
2024/04/01 09:45:13;;;;;;;42.30;9.60;;;;;;;25.41;35.63;98705.51;107451;1254;68573;-38
2024/04/01 09:47:42;;;;;;;38.80;8.30;;;;;;;25.60;35.16;98698.70;107648;1253;72491;-38
2024/04/01 09:50:10;;;;;;;34.40;9.20;;;;;;;25.79;35.24;98697.52;107644;1253;61098;-39
2024/04/01 09:52:37;;;;;;;42.30;10.50;;;;;;;26.05;34.15;98700.71;107359;1254;61231;-38
2024/04/01 09:55:09;;;;;;;39.70;9.30;;;;;;;26.26;33.27;98691.54;107616;1257;74677;-38
2024/04/01 09:57:46;;;;;;;44.90;9.80;;;;;;;26.47;33.23;98682.91;107692;1254;67151;-38
2024/04/01 10:00:12;;;;;;;55.30;34.00;;;;;;;26.66;32.90;98684.70;107504;1254;72784;-39
2024/04/01 10:03:03;;;;;;;58.50;33.00;;;;;;;26.75;31.63;98686.23;107666;1254;60455;-38
2024/04/01 10:05:33;;;;;;;53.80;32.40;;;;;;;26.82;30.74;98682.29;107698;1253;60690;-38
2024/04/01 10:08:19;;;;;;;71.00;42.40;;;;;;;26.91;31.23;98673.68;107555;1254;180115;-39
2024/04/01 10:11:43;;;;;;;62.70;45.70;;;;;;;27.09;31.08;98674.10;104133;1291;600609;-39
2024/04/01 10:14:26;;;;;;;64.00;46.80;;;;;;;27.17;32.05;98671.58;106461;1267;60452;-38
2024/04/01 10:17:15;;;;;;;65.00;40.70;;;;;;;27.33;30.61;98671.48;106532;1268;60747;-38
2024/04/01 10:20:00;;;;;;;51.10;35.00;;;;;;;27.40;29.93;98674.46;106613;1267;73874;-38
2024/04/01 10:23:09;;;;;;;46.70;24.00;;;;;;;27.39;29.74;98673.58;106562;1275;67697;-38
2024/04/01 10:25:40;;;;;;;50.80;19.80;;;;;;;27.42;30.68;98666.63;106098;1277;187124;-39
2024/04/01 10:28:45;;;;;;;44.90;15.50;;;;;;;27.52;30.05;98667.67;106570;1269;60391;-39
2024/04/01 10:31:23;;;;;;;50.60;14.00;;;;;;;27.65;29.52;98661.02;106782;1266;60458;-39
2024/04/01 10:34:00;;;;;;;52.40;13.20;;;;;;;27.73;29.95;98657.49;106721;1270;73246;-39
2024/04/01 10:36:58;;;;;;;52.60;13.70;;;;;;;27.85;29.68;98664.78;106748;1269;67833;-39
2024/04/01 10:39:49;;;;;;;49.60;15.90;;;;;;;27.91;29.04;98669.00;106717;1264;72968;-38
2024/04/01 10:42:45;;;;;;;45.40;14.20;;;;;;;27.86;28.97;98661.86;106719;1264;60511;-38
2024/04/01 10:45:40;;;;;;;47.10;14.50;;;;;;;27.74;28.25;98665.36;106746;1265;59616;-38
2024/04/01 10:48:18;;;;;;;48.20;16.60;;;;;;;27.62;28.65;98665.48;106745;1269;74614;-39
2024/04/01 10:51:17;;;;;;;46.40;15.20;;;;;;;27.50;28.88;98663.23;106746;1270;68164;-39
2024/04/01 10:54:04;;;;;;;47.00;15.80;;;;;;;27.40;29.49;98658.52;106851;1261;73675;-39
2024/04/01 10:56:49;;;;;;;50.20;13.60;;;;;;;27.36;30.04;98656.74;106861;1261;62179;-39
2024/04/01 10:59:34;;;;;;;44.50;14.00;;;;;;;27.32;30.21;98656.59;106893;1262;60572;-39
2024/04/01 11:02:05;;;;;;;47.50;12.00;;;;;;;27.31;30.05;98661.69;106708;1269;74510;-39
2024/04/01 11:05:07;;;;;;;48.60;14.60;;;;;;;27.26;30.04;98655.72;106773;1267;68100;-39
2024/04/01 11:08:03;;;;;;;53.20;13.50;;;;;;;27.24;30.09;98656.57;106806;1263;71472;-39
2024/04/01 11:10:43;;;;;;;52.50;13.30;;;;;;;27.22;29.82;98659.42;106872;1266;62281;-39
2024/04/01 11:13:20;;;;;;;;;;;;;;;27.18;29.93;98656.86;106826;1261;60367;-39
2024/04/01 11:15:51;;;;;;;50.80;14.30;;;;;;;27.11;29.33;98654.05;106883;1260;73677;-39
2024/04/01 11:18:18;;;;;;;49.50;12.90;;;;;;;27.07;29.51;98647.93;106879;1266;68368;-39
2024/04/01 11:21:03;;;;;;;47.10;11.50;;;;;;;27.03;30.06;98650.00;106881;1264;72994;-39
2024/04/01 11:24:02;;;;;;;46.40;11.70;;;;;;;26.98;29.77;98646.96;106859;1263;60428;-39
2024/04/01 11:26:48;;;;;;;53.80;12.00;;;;;;;27.00;29.48;98640.11;106865;1266;60401;-39
2024/04/01 11:29:27;;;;;;;52.10;15.30;;;;;;;27.07;30.17;98635.80;106895;1266;73031;-39